Time;durP1;ratioP1;P1;durP2;ratioP2;P2;SDS_P1;SDS_P2;PMS_P1;PMS_P2;Temp;Humidity;BMP_temperature;BMP_pressure;BME280_temperature;BME280_humidity;BME280_pressure;Samples;Min_cycle;Max_cycle;Signal;HPM_P1;HPM_P2
2022/04/15 00:01:39;;;;;;;28.60;15.57;;;16.30;61.80;;;;;;4932940;29;20213;-93
2022/04/15 00:04:07;;;;;;;24.03;14.53;;;16.30;61.80;;;;;;4931981;29;20238;-93
2022/04/15 00:06:36;;;;;;;29.87;16.33;;;16.30;62.00;;;;;;4934152;29;20860;-95
2022/04/15 00:09:06;;;;;;;24.33;14.37;;;16.20;62.30;;;;;;4933310;29;20275;-94
2022/04/15 00:11:37;;;;;;;24.27;14.33;;;16.20;62.20;;;;;;4929236;29;20210;-94
2022/04/15 00:14:04;;;;;;;19.70;13.23;;;16.20;62.30;;;;;;4934003;29;20292;-91
2022/04/15 00:16:33;;;;;;;26.37;15.70;;;16.10;62.20;;;;;;4933399;29;20214;-93
2022/04/15 00:19:01;;;;;;;21.40;13.83;;;16.10;62.30;;;;;;4934218;29;20216;-91
2022/04/15 00:21:28;;;;;;;26.93;16.03;;;16.00;63.10;;;;;;4931163;29;20210;-93
2022/04/15 00:23:57;;;;;;;26.37;14.57;;;16.00;62.40;;;;;;4933374;29;20334;-91
2022/04/15 00:26:24;;;;;;;20.57;14.87;;;16.00;62.50;;;;;;4932233;29;20249;-93
2022/04/15 00:28:54;;;;;;;25.37;15.27;;;15.90;62.50;;;;;;4934044;29;20196;-93
2022/04/15 00:31:21;;;;;;;24.57;15.83;;;15.90;62.80;;;;;;4931925;29;20241;-92
2022/04/15 00:33:51;;;;;;;23.20;14.93;;;15.90;62.80;;;;;;4934205;29;20276;-94
2022/04/15 00:36:18;;;;;;;21.33;14.13;;;15.90;63.30;;;;;;4932755;29;20215;-93
2022/04/15 00:38:45;;;;;;;27.57;15.33;;;15.80;62.90;;;;;;4934063;29;20213;-92
2022/04/15 00:41:15;;;;;;;23.70;14.50;;;15.80;63.10;;;;;;4932774;29;20624;-92
2022/04/15 00:43:43;;;;;;;22.63;16.00;;;15.80;63.50;;;;;;4934433;29;20232;-92
2022/04/15 00:46:13;;;;;;;26.43;16.57;;;15.80;63.50;;;;;;4936211;29;20724;-92
2022/04/15 00:48:41;;;;;;;28.20;16.93;;;15.70;63.80;;;;;;4936657;29;20255;-93
2022/04/15 00:51:08;;;;;;;25.03;15.70;;;15.70;63.70;;;;;;4937473;29;20215;-91
2022/04/15 00:53:39;;;;;;;23.50;14.30;;;15.70;64.00;;;;;;4935503;29;20212;-92
2022/04/15 00:56:09;;;;;;;24.90;16.37;;;15.60;63.70;;;;;;4935908;29;20202;-91
2022/04/15 00:58:38;;;;;;;34.70;18.93;;;15.70;64.00;;;;;;4936045;29;20878;-91
2022/04/15 01:01:06;;;;;;;27.43;17.73;;;15.60;63.90;;;;;;4936193;29;20206;-90
2022/04/15 01:03:36;;;;;;;25.03;16.93;;;15.70;64.00;;;;;;4935852;29;20245;-92
2022/04/15 01:06:08;;;;;;;28.67;16.87;;;15.60;64.20;;;;;;4936001;29;20200;-91
2022/04/15 01:08:42;;;;;;;24.77;16.57;;;15.60;64.50;;;;;;4936017;29;20213;-91
2022/04/15 01:11:12;;;;;;;28.43;16.43;;;15.60;64.70;;;;;;4935331;29;20225;-91
2022/04/15 01:13:40;;;;;;;26.63;17.50;;;15.60;64.60;;;;;;4935157;29;20240;-92
2022/04/15 01:16:12;;;;;;;28.03;16.40;;;15.60;64.40;;;;;;4935780;29;20664;-92
2022/04/15 01:18:41;;;;;;;25.53;15.60;;;15.50;64.70;;;;;;4934917;29;20287;-91
2022/04/15 01:21:11;;;;;;;27.53;16.43;;;15.50;64.90;;;;;;4936382;29;20882;-91
2022/04/15 01:23:43;;;;;;;26.33;17.07;;;15.40;64.80;;;;;;4934498;29;20234;-92
2022/04/15 01:26:10;;;;;;;29.63;16.27;;;15.40;65.10;;;;;;4933816;29;20201;-95
2022/04/15 01:28:37;;;;;;;29.40;17.60;;;15.40;64.70;;;;;;4917067;29;20214;-92
2022/04/15 01:31:05;;;;;;;23.60;16.23;;;15.40;64.90;;;;;;4935709;29;20220;-92
2022/04/15 01:33:33;;;;;;;28.50;17.50;;;15.40;65.10;;;;;;4935066;29;20237;-91
2022/04/15 01:36:03;;;;;;;24.70;16.90;;;15.30;65.30;;;;;;4934843;29;20288;-91
2022/04/15 01:38:31;;;;;;;25.80;17.17;;;15.30;65.20;;;;;;4936001;29;20299;-92
2022/04/15 01:41:00;;;;;;;28.40;17.53;;;15.30;65.20;;;;;;4934265;29;20738;-95
2022/04/15 01:43:27;;;;;;;34.90;20.37;;;15.30;65.50;;;;;;4934985;29;20254;-92
2022/04/15 01:45:54;;;;;;;29.87;19.33;;;15.30;65.50;;;;;;4933521;29;20283;-91
2022/04/15 01:48:21;;;;;;;32.70;20.27;;;15.30;65.80;;;;;;4934365;29;20295;-90
2022/04/15 01:50:49;;;;;;;34.17;20.90;;;15.30;65.90;;;;;;4935122;29;20303;-91
2022/04/15 01:53:18;;;;;;;32.77;20.33;;;15.30;65.80;;;;;;4931724;29;20318;-91
2022/04/15 01:55:45;;;;;;;34.07;21.10;;;15.30;65.80;;;;;;4934433;29;20988;-91
2022/04/15 01:58:14;;;;;;;31.07;19.43;;;15.20;66.00;;;;;;4933760;29;20703;-94
2022/04/15 02:00:44;;;;;;;33.07;20.90;;;15.20;65.90;;;;;;4918355;29;20666;-93
2022/04/15 02:03:12;;;;;;;30.27;19.43;;;15.20;65.50;;;;;;4934808;29;20580;-91
2022/04/15 02:05:41;;;;;;;36.53;21.37;;;15.20;65.80;;;;;;4934259;29;20260;-91
2022/04/15 02:08:08;;;;;;;27.90;18.53;;;15.20;66.00;;;;;;4934261;29;20239;-91
2022/04/15 02:10:36;;;;;;;30.20;18.93;;;15.20;65.70;;;;;;4935401;29;20858;-92
2022/04/15 02:13:04;;;;;;;29.87;18.43;;;15.20;65.80;;;;;;4934709;29;20280;-93
2022/04/15 02:15:32;;;;;;;30.13;19.07;;;15.10;65.30;;;;;;4935249;29;20676;-93
2022/04/15 02:18:00;;;;;;;33.13;20.40;;;15.10;65.60;;;;;;4934524;29;20208;-91
2022/04/15 02:20:27;;;;;;;31.47;19.93;;;15.10;65.40;;;;;;4933099;29;20200;-91
2022/04/15 02:22:54;;;;;;;29.67;19.57;;;15.10;65.50;;;;;;4933384;29;20208;-92
2022/04/15 02:25:22;;;;;;;31.83;19.87;;;15.00;65.80;;;;;;4932971;29;20214;-92
2022/04/15 02:27:50;;;;;;;30.27;18.70;;;15.00;66.10;;;;;;4933746;29;20220;-92
2022/04/15 02:30:18;;;;;;;37.13;22.77;;;15.00;65.80;;;;;;4933576;29;20717;-91
2022/04/15 02:32:46;;;;;;;34.07;20.67;;;14.90;65.80;;;;;;4934207;29;21037;-90
2022/04/15 02:35:13;;;;;;;39.57;22.20;;;14.90;66.00;;;;;;4933963;29;20409;-91
2022/04/15 02:37:41;;;;;;;30.40;19.47;;;14.90;65.90;;;;;;4932955;29;20640;-90
2022/04/15 02:40:09;;;;;;;29.60;19.43;;;14.90;65.70;;;;;;4934652;29;20679;-91
2022/04/15 02:42:37;;;;;;;34.73;20.80;;;14.90;65.70;;;;;;4933102;29;20238;-91
2022/04/15 02:45:08;;;;;;;36.43;21.20;;;14.80;65.70;;;;;;4932946;29;20323;-91
2022/04/15 02:47:35;;;;;;;30.13;19.03;;;14.80;65.80;;;;;;4933028;29;20270;-92
2022/04/15 02:50:05;;;;;;;32.70;19.43;;;14.80;65.80;;;;;;4933487;29;20208;-94
2022/04/15 02:52:35;;;;;;;29.93;19.93;;;14.80;66.30;;;;;;4925688;29;20263;-91
2022/04/15 02:55:02;;;;;;;35.90;20.37;;;14.70;66.20;;;;;;4933792;29;20723;-91
2022/04/15 02:57:30;;;;;;;30.67;18.80;;;14.70;65.90;;;;;;4932520;29;20193;-91
2022/04/15 02:59:58;;;;;;;32.07;20.13;;;14.60;65.90;;;;;;4935184;29;20204;-90
2022/04/15 03:02:25;;;;;;;35.80;20.87;;;14.60;66.00;;;;;;4926723;29;20299;-92
2022/04/15 03:04:52;;;;;;;30.83;18.53;;;14.60;65.90;;;;;;4933953;29;20304;-94
2022/04/15 03:07:23;;;;;;;31.13;19.33;;;14.50;66.10;;;;;;4933733;29;20270;-95
2022/04/15 03:09:50;;;;;;;31.30;19.40;;;14.50;66.40;;;;;;4934648;29;20230;-91
2022/04/15 03:12:19;;;;;;;30.97;18.63;;;14.50;66.10;;;;;;4931236;29;20275;-92
2022/04/15 03:14:46;;;;;;;33.10;20.40;;;14.50;66.40;;;;;;4933020;29;20214;-95
2022/04/15 03:17:16;;;;;;;38.30;21.23;;;14.40;66.10;;;;;;4933249;29;20226;-90
2022/04/15 03:19:43;;;;;;;30.30;19.37;;;14.40;66.00;;;;;;4916339;29;20272;-92
2022/04/15 03:22:10;;;;;;;29.20;19.60;;;14.40;66.10;;;;;;4924694;29;20214;-92
2022/04/15 03:24:40;;;;;;;31.53;19.87;;;14.30;66.10;;;;;;4933573;29;20239;-92
2022/04/15 03:27:08;;;;;;;28.30;18.80;;;14.30;66.40;;;;;;4931575;29;20209;-91
2022/04/15 03:29:37;;;;;;;29.97;19.27;;;14.30;66.30;;;;;;4934047;29;20207;-91
2022/04/15 03:32:05;;;;;;;29.97;19.10;;;14.20;66.10;;;;;;4934356;29;20303;-91
2022/04/15 03:34:33;;;;;;;30.17;19.23;;;14.20;66.10;;;;;;4933167;29;20652;-91
2022/04/15 03:37:00;;;;;;;27.80;18.70;;;14.20;66.30;;;;;;4932353;29;20665;-92
2022/04/15 03:39:27;;;;;;;30.23;18.83;;;14.20;66.90;;;;;;4932726;29;20215;-91
2022/04/15 03:41:56;;;;;;;31.93;19.77;;;14.10;66.20;;;;;;4932521;29;20294;-92
2022/04/15 03:44:24;;;;;;;27.63;17.23;;;14.10;66.60;;;;;;4931926;29;20332;-90
2022/04/15 03:46:52;;;;;;;35.80;20.23;;;14.10;66.50;;;;;;4931141;29;20613;-92
2022/04/15 03:49:36;;;;;;;29.33;18.20;;;14.10;66.50;;;;;;4930821;29;20726;-91
2022/04/15 03:52:03;;;;;;;30.97;18.87;;;14.00;66.80;;;;;;4933015;29;20620;-92
2022/04/15 03:54:30;;;;;;;28.03;17.53;;;14.00;66.60;;;;;;4933540;29;20853;-94
2022/04/15 03:56:59;;;;;;;33.60;20.23;;;13.90;66.40;;;;;;4933142;29;20257;-92
2022/04/15 03:59:26;;;;;;;26.80;17.50;;;13.90;66.70;;;;;;4934015;29;20237;-92
2022/04/15 04:01:53;;;;;;;33.50;19.83;;;13.90;66.60;;;;;;4932204;29;20207;-92
2022/04/15 04:04:21;;;;;;;28.87;20.03;;;13.90;66.40;;;;;;4933681;29;20273;-92
2022/04/15 04:06:51;;;;;;;33.77;19.60;;;13.80;66.60;;;;;;4930880;29;20208;-91
2022/04/15 04:09:18;;;;;;;31.03;19.20;;;13.80;66.60;;;;;;4932499;29;20244;-92
2022/04/15 04:11:47;;;;;;;29.23;18.47;;;13.80;66.60;;;;;;4931423;29;20208;-92
2022/04/15 04:14:16;;;;;;;27.33;17.73;;;13.80;66.70;;;;;;4933494;29;20215;-92
2022/04/15 04:16:43;;;;;;;35.67;21.23;;;13.70;66.80;;;;;;4932122;29;20228;-91
2022/04/15 04:19:11;;;;;;;31.03;20.20;;;13.70;66.80;;;;;;4936545;29;20226;-92
2022/04/15 04:21:38;;;;;;;35.17;21.83;;;13.70;67.00;;;;;;4935016;29;20219;-92
2022/04/15 04:24:06;;;;;;;32.63;21.50;;;13.70;67.20;;;;;;4917363;29;20238;-91
2022/04/15 04:26:33;;;;;;;30.20;19.97;;;13.60;67.30;;;;;;4929072;29;20232;-90
2022/04/15 04:29:23;;;;;;;32.73;20.80;;;13.60;67.40;;;;;;4937508;29;20275;-90
2022/04/15 04:31:50;;;;;;;36.20;22.17;;;13.60;67.90;;;;;;4933963;29;20274;-91
2022/04/15 04:34:25;;;;;;;38.33;22.17;;;13.60;67.50;;;;;;4936503;29;20217;-90
2022/04/15 04:36:53;;;;;;;34.73;22.20;;;13.60;68.20;;;;;;4937316;29;20207;-92
2022/04/15 04:39:21;;;;;;;37.47;21.77;;;13.60;67.80;;;;;;4935676;29;20214;-91
2022/04/15 04:41:48;;;;;;;31.60;19.03;;;13.50;67.60;;;;;;4933945;29;20212;-92
2022/04/15 04:44:15;;;;;;;35.20;22.27;;;13.50;67.60;;;;;;4936636;29;20275;-91
2022/04/15 04:46:44;;;;;;;34.47;21.00;;;13.50;67.70;;;;;;4933980;29;20231;-92
2022/04/15 04:49:14;;;;;;;34.00;20.60;;;13.50;68.00;;;;;;4918860;29;20234;-91
2022/04/15 04:51:45;;;;;;;32.23;19.57;;;13.50;68.00;;;;;;4934363;29;20219;-91
2022/04/15 04:54:13;;;;;;;29.40;18.07;;;13.50;67.80;;;;;;4936514;29;20306;-91
2022/04/15 04:56:41;;;;;;;28.03;17.53;;;13.40;67.60;;;;;;4937161;29;20207;-91
2022/04/15 04:59:09;;;;;;;31.43;17.77;;;13.40;67.50;;;;;;4941524;29;20248;-91
2022/04/15 05:01:38;;;;;;;29.37;17.60;;;13.40;67.60;;;;;;4935563;29;20313;-93
2022/04/15 05:04:08;;;;;;;23.03;15.20;;;13.40;67.60;;;;;;4936408;29;20329;-92
2022/04/15 05:06:36;;;;;;;25.23;15.20;;;13.40;67.60;;;;;;4936698;29;20199;-92
2022/04/15 05:09:12;;;;;;;25.60;15.23;;;13.30;67.60;;;;;;4937694;29;20210;-92
2022/04/15 05:11:39;;;;;;;22.07;14.20;;;13.30;68.10;;;;;;4936025;29;20246;-92
2022/04/15 05:14:06;;;;;;;21.73;13.40;;;13.30;67.70;;;;;;4937091;29;20278;-92
2022/04/15 05:16:34;;;;;;;18.97;12.07;;;13.20;67.80;;;;;;4937349;29;20204;-93
2022/04/15 05:19:02;;;;;;;17.50;11.33;;;13.10;67.70;;;;;;4935184;29;20219;-91
2022/04/15 05:21:30;;;;;;;19.33;11.97;;;13.10;68.00;;;;;;4935629;29;20211;-92
2022/04/15 05:24:08;;;;;;;30.90;14.40;;;13.00;68.00;;;;;;4934289;29;20229;-93
2022/04/15 05:26:36;;;;;;;21.37;11.87;;;13.00;67.80;;;;;;4930229;29;20210;-93
2022/04/15 05:29:03;;;;;;;17.43;11.87;;;12.90;67.90;;;;;;4936542;29;20206;-93
2022/04/15 05:31:30;;;;;;;20.70;11.53;;;12.90;68.20;;;;;;4931827;29;20215;-94
2022/04/15 05:34:00;;;;;;;19.23;11.40;;;12.80;68.30;;;;;;4935797;29;20242;-92
2022/04/15 05:36:28;;;;;;;21.63;11.97;;;12.80;68.90;;;;;;4926998;29;20216;-92
2022/04/15 05:39:08;;;;;;;18.53;11.23;;;12.70;68.80;;;;;;4937662;29;20209;-94
2022/04/15 05:41:35;;;;;;;17.00;11.27;;;12.70;69.70;;;;;;4937347;29;20659;-94
2022/04/15 05:44:03;;;;;;;17.53;11.33;;;12.60;69.00;;;;;;4937481;29;20259;-95
2022/04/15 05:46:33;;;;;;;20.83;10.80;;;12.60;69.50;;;;;;4937152;29;20213;-95
2022/04/15 05:49:00;;;;;;;20.57;11.93;;;12.50;69.30;;;;;;4936905;29;20203;-96
2022/04/15 05:51:29;;;;;;;22.33;12.33;;;12.50;69.00;;;;;;4936538;29;20209;-92
2022/04/15 05:53:59;;;;;;;13.27;10.13;;;12.50;69.20;;;;;;4937202;29;20207;-95
2022/04/15 05:59:20;;;;;;;16.30;10.27;;;12.40;70.40;;;;;;4931496;23;20264;-94
2022/04/15 06:01:50;;;;;;;16.07;10.90;;;12.40;70.70;;;;;;4936818;29;20229;-95
2022/04/15 06:04:18;;;;;;;14.73;10.73;;;12.40;70.70;;;;;;4938866;29;20247;-95
2022/04/15 06:06:47;;;;;;;14.00;10.60;;;12.40;71.00;;;;;;4937673;29;20210;-94
2022/04/15 06:09:16;;;;;;;18.30;11.33;;;12.40;71.10;;;;;;4938357;29;20263;-92
2022/04/15 06:11:57;;;;;;;16.37;11.60;;;12.30;71.20;;;;;;4936474;29;20203;-94
2022/04/15 06:14:33;;;;;;;12.30;9.37;;;12.40;72.00;;;;;;4936322;29;20205;-95
2022/04/15 06:17:01;;;;;;;14.30;10.60;;;12.40;71.70;;;;;;4926508;29;20233;-93
2022/04/15 06:19:28;;;;;;;18.67;10.63;;;12.40;71.70;;;;;;4935522;29;20228;-94
2022/04/15 06:22:01;;;;;;;18.93;10.70;;;12.40;72.50;;;;;;4936601;29;20241;-92
2022/04/15 06:24:30;;;;;;;14.47;11.10;;;12.40;72.50;;;;;;4937765;29;20316;-92
2022/04/15 06:26:57;;;;;;;16.77;11.00;;;12.40;72.50;;;;;;4933713;29;20255;-92
2022/04/15 06:29:27;;;;;;;14.63;10.43;;;12.50;72.60;;;;;;4929946;29;20212;-93
2022/04/15 06:31:54;;;;;;;15.43;10.80;;;12.50;73.30;;;;;;4934891;29;20245;-94
2022/04/15 06:34:26;;;;;;;17.10;12.10;;;12.50;73.30;;;;;;4931751;29;20213;-93
2022/04/15 06:36:54;;;;;;;16.97;11.90;;;12.50;74.20;;;;;;4935803;29;20264;-93
2022/04/15 06:39:23;;;;;;;25.17;14.07;;;12.60;74.50;;;;;;4936198;29;20216;-92
2022/04/15 06:41:52;;;;;;;20.93;13.90;;;12.60;75.20;;;;;;4923311;29;20271;-94
2022/04/15 06:44:35;;;;;;;26.43;14.37;;;12.70;75.80;;;;;;4916891;29;20223;-92
2022/04/15 06:47:02;;;;;;;29.57;17.23;;;12.70;75.70;;;;;;4926705;29;20244;-93
2022/04/15 06:49:29;;;;;;;26.17;16.60;;;12.80;76.00;;;;;;4933094;29;20308;-91
2022/04/15 06:51:56;;;;;;;29.37;18.90;;;12.90;76.50;;;;;;4933097;29;20233;-91
2022/04/15 06:54:23;;;;;;;30.20;20.37;;;13.00;77.00;;;;;;4934818;29;20314;-92
2022/04/15 06:56:53;;;;;;;31.77;18.93;;;13.10;77.20;;;;;;4931995;29;20250;-92
2022/04/15 06:59:21;;;;;;;35.83;19.97;;;13.10;78.30;;;;;;4933763;29;20307;-91
2022/04/15 07:01:48;;;;;;;32.97;22.27;;;13.20;77.90;;;;;;4915834;29;20285;-92
2022/04/15 07:04:15;;;;;;;35.80;23.00;;;13.20;78.70;;;;;;4930659;29;20289;-91
2022/04/15 07:06:43;;;;;;;38.30;23.87;;;13.30;78.50;;;;;;4931154;29;20218;-92
2022/04/15 07:09:12;;;;;;;48.37;25.47;;;13.40;79.60;;;;;;4930315;29;20660;-93
2022/04/15 07:11:46;;;;;;;39.60;23.20;;;13.50;79.20;;;;;;4933233;29;20222;-91
2022/04/15 07:14:15;;;;;;;39.17;23.93;;;13.50;79.80;;;;;;4932891;29;20214;-91
2022/04/15 07:16:42;;;;;;;40.97;23.80;;;13.60;79.40;;;;;;4930209;29;20203;-91
2022/04/15 07:19:09;;;;;;;37.53;24.33;;;13.70;79.00;;;;;;4933074;29;20286;-91
2022/04/15 07:21:36;;;;;;;37.80;24.50;;;13.80;79.00;;;;;;4931792;29;20270;-92
2022/04/15 07:24:05;;;;;;;36.60;25.07;;;13.90;79.10;;;;;;4933168;29;20226;-94
2022/04/15 07:26:32;;;;;;;39.97;23.13;;;13.90;79.40;;;;;;4930281;29;20590;-92
2022/04/15 07:28:59;;;;;;;35.93;22.87;;;14.00;79.60;;;;;;4914397;29;20216;-92
2022/04/15 07:31:32;;;;;;;37.33;24.03;;;14.20;79.50;;;;;;4911564;29;20207;-94
2022/04/15 07:33:59;;;;;;;41.90;25.40;;;14.20;80.50;;;;;;4933061;29;20204;-91
2022/04/15 07:36:45;;;;;;;38.63;23.67;;;14.30;79.60;;;;;;4930953;29;20310;-94
2022/04/15 07:39:15;;;;;;;41.73;24.80;;;14.40;79.70;;;;;;4931745;29;20259;-91
2022/04/15 07:41:45;;;;;;;40.53;25.03;;;14.40;79.50;;;;;;4931628;29;20211;-91
2022/04/15 07:44:13;;;;;;;35.47;24.17;;;14.50;79.80;;;;;;4932214;29;20308;-91
2022/04/15 07:46:43;;;;;;;42.37;24.77;;;14.60;79.70;;;;;;4932335;29;20235;-92
2022/04/15 07:49:11;;;;;;;40.50;25.47;;;14.70;80.40;;;;;;4929544;29;20681;-95
2022/04/15 07:51:39;;;;;;;30.10;23.00;;;14.80;79.60;;;;;;4930163;29;20694;-92
2022/04/15 07:54:11;;;;;;;41.97;24.77;;;14.90;79.70;;;;;;4931480;29;20673;-94
2022/04/15 07:56:39;;;;;;;39.17;24.70;;;15.00;79.90;;;;;;4915223;29;20243;-93
2022/04/15 07:59:07;;;;;;;38.00;24.47;;;15.10;79.60;;;;;;4926837;29;20757;-91
2022/04/15 08:01:34;;;;;;;36.80;24.47;;;15.20;79.20;;;;;;4932643;29;20283;-93
2022/04/15 08:04:03;;;;;;;36.90;24.63;;;15.30;78.90;;;;;;4929450;29;20226;-93
2022/04/15 08:06:30;;;;;;;40.70;25.50;;;15.40;78.70;;;;;;4916350;29;20340;-92
2022/04/15 08:09:00;;;;;;;33.50;23.83;;;15.50;78.10;;;;;;4920767;29;20260;-93
2022/04/15 08:11:28;;;;;;;36.73;23.83;;;15.60;78.20;;;;;;4923660;29;20549;-93
2022/04/15 08:13:56;;;;;;;45.00;26.37;;;15.70;78.40;;;;;;4933945;29;20291;-93
2022/04/15 08:16:25;;;;;;;39.07;24.77;;;15.80;78.00;;;;;;4926062;29;20293;-93
2022/04/15 08:18:52;;;;;;;43.77;25.90;;;15.90;78.10;;;;;;4922684;29;20208;-93
2022/04/15 08:21:21;;;;;;;35.83;25.27;;;16.00;78.10;;;;;;4931428;29;20219;-94
2022/04/15 08:23:48;;;;;;;34.20;23.23;;;16.10;78.10;;;;;;4932202;29;20270;-94
2022/04/15 08:26:15;;;;;;;34.97;25.67;;;16.20;77.30;;;;;;4931607;29;20244;-94
2022/04/15 08:28:42;;;;;;;40.43;24.13;;;16.20;76.70;;;;;;4931254;29;20239;-95
2022/04/15 08:31:09;;;;;;;32.10;21.03;;;16.30;76.50;;;;;;4932173;29;20222;-94
2022/04/15 08:33:38;;;;;;;31.43;22.80;;;16.40;75.90;;;;;;4931306;29;20220;-95
2022/04/15 08:36:05;;;;;;;31.10;22.70;;;16.50;76.00;;;;;;4918461;29;20249;-92
2022/04/15 08:38:41;;;;;;;48.30;25.50;;;16.60;75.70;;;;;;4929874;29;20205;-93
2022/04/15 08:41:19;;;;;;;34.20;19.50;;;16.70;75.70;;;;;;4922655;29;20208;-91
2022/04/15 08:43:54;;;;;;;31.37;19.33;;;16.80;73.80;;;;;;4928007;29;20231;-91
2022/04/15 08:46:25;;;;;;;36.90;19.77;;;16.90;72.70;;;;;;4928035;29;20245;-93
2022/04/15 08:48:55;;;;;;;28.53;19.47;;;17.00;72.80;;;;;;4928294;29;20716;-90
2022/04/15 08:51:24;;;;;;;32.17;19.33;;;17.00;72.60;;;;;;4928130;29;20203;-91
2022/04/15 08:53:58;;;;;;;31.73;19.40;;;17.10;72.30;;;;;;4929390;29;20266;-91
2022/04/15 08:56:30;;;;;;;25.73;15.87;;;17.20;71.60;;;;;;4929700;29;20207;-90
2022/04/15 08:58:57;;;;;;;27.93;15.97;;;17.30;70.90;;;;;;4928026;29;20222;-90
2022/04/15 09:01:25;;;;;;;38.57;19.57;;;17.40;71.40;;;;;;4927627;29;20212;-93
2022/04/15 09:06:43;;;;;;;33.73;18.87;;;17.70;71.60;;;;;;4929755;29;20238;-94
2022/04/15 09:09:14;;;;;;;31.20;17.17;;;17.80;70.50;;;;;;4934191;29;20676;-94
2022/04/15 09:11:50;;;;;;;34.53;18.90;;;18.00;71.20;;;;;;4932198;29;20211;-92
2022/04/15 09:14:18;;;;;;;25.20;16.60;;;18.20;70.50;;;;;;4942278;29;20207;-91
2022/04/15 09:16:48;;;;;;;30.77;18.13;;;18.30;70.50;;;;;;4950198;29;20256;-90
2022/04/15 09:19:24;;;;;;;26.53;17.87;;;18.50;69.10;;;;;;4938441;29;20204;-90
2022/04/15 09:21:53;;;;;;;26.07;16.27;;;18.60;68.90;;;;;;4935567;29;20267;-91
2022/04/15 09:24:30;;;;;;;24.93;16.10;;;18.70;68.90;;;;;;4936264;29;20204;-93
2022/04/15 09:27:02;;;;;;;23.03;12.10;;;18.80;68.20;;;;;;4932222;29;20238;-92
2022/04/15 09:29:34;;;;;;;21.10;13.27;;;19.00;67.70;;;;;;4935146;29;20200;-89
2022/04/15 09:32:06;;;;;;;16.33;11.30;;;19.10;66.10;;;;;;4931942;29;20229;-91
2022/04/15 09:34:33;;;;;;;25.03;14.33;;;19.20;64.60;;;;;;4933030;29;20295;-91
2022/04/15 09:37:07;;;;;;;23.70;12.20;;;19.30;65.00;;;;;;4932007;29;20277;-92
2022/04/15 09:39:35;;;;;;;21.07;12.63;;;19.30;64.10;;;;;;4939646;29;20208;-91
2022/04/15 09:42:05;;;;;;;22.03;12.00;;;19.40;63.70;;;;;;4943324;29;20213;-92
2022/04/15 09:44:34;;;;;;;25.73;13.00;;;19.50;65.20;;;;;;4941467;29;20208;-91
2022/04/15 09:47:06;;;;;;;24.63;11.73;;;19.60;64.50;;;;;;4936790;29;20573;-93
2022/04/15 09:49:35;;;;;;;16.83;10.63;;;19.70;63.40;;;;;;4932956;29;20312;-93
2022/04/15 09:52:04;;;;;;;16.63;11.07;;;19.80;62.50;;;;;;4936061;29;20218;-93
2022/04/15 09:54:38;;;;;;;18.03;9.77;;;19.90;62.30;;;;;;4933605;29;20219;-91
2022/04/15 10:00:12;;;;;;;17.47;10.53;;;20.00;60.00;;;;;;4929213;23;20232;-94
2022/04/15 10:02:42;;;;;;;18.57;12.33;;;20.10;60.50;;;;;;4922607;29;20227;-93
2022/04/15 10:05:15;;;;;;;16.30;11.00;;;20.20;60.90;;;;;;4930874;29;20219;-93
2022/04/15 10:07:42;;;;;;;11.90;8.83;;;20.30;61.20;;;;;;4925564;29;20209;-92
2022/04/15 10:10:17;;;;;;;19.10;10.30;;;20.30;60.30;;;;;;4924973;29;20657;-94
2022/04/15 10:15:43;;;;;;;17.17;9.73;;;20.50;60.10;;;;;;4913174;29;20589;-93
2022/04/15 10:18:11;;;;;;;15.53;9.27;;;20.60;59.10;;;;;;4925281;29;20344;-92
2022/04/15 10:20:42;;;;;;;13.43;8.63;;;20.70;59.50;;;;;;4917519;29;20209;-90
2022/04/15 10:23:13;;;;;;;18.97;10.43;;;20.80;59.40;;;;;;4924042;29;20194;-91
2022/04/15 10:25:46;;;;;;;17.73;9.27;;;20.90;58.60;;;;;;4923615;29;20259;-94
2022/04/15 10:28:16;;;;;;;13.33;8.20;;;21.00;57.40;;;;;;4924666;29;20916;-91
2022/04/15 10:30:51;;;;;;;16.37;9.27;;;21.20;58.60;;;;;;4928665;29;20272;-94
2022/04/15 10:33:29;;;;;;;13.73;8.17;;;21.30;58.10;;;;;;4909730;29;20248;-93
2022/04/15 10:36:00;;;;;;;11.93;8.03;;;21.40;57.10;;;;;;4928036;29;20195;-93
2022/04/15 10:38:33;;;;;;;13.67;8.43;;;21.50;57.30;;;;;;4928913;29;20224;-95
2022/04/15 10:41:14;;;;;;;12.60;8.20;;;21.70;57.70;;;;;;4923855;29;20306;-94
2022/04/15 10:43:58;;;;;;;15.17;9.37;;;21.80;56.00;;;;;;4924618;29;20211;-93
2022/04/15 10:46:30;;;;;;;17.37;10.63;;;22.00;56.20;;;;;;4936832;23;20335;-92
2022/04/15 10:49:02;;;;;;;15.93;10.00;;;22.10;56.70;;;;;;4931269;29;20200;-92
2022/04/15 10:51:38;;;;;;;22.77;11.67;;;22.20;56.50;;;;;;4930447;29;20259;-95
2022/04/15 10:54:30;;;;;;;14.33;8.47;;;22.30;56.30;;;;;;4930375;29;20731;-91
2022/04/15 10:57:02;;;;;;;18.23;10.83;;;22.40;55.40;;;;;;4930051;29;20575;-90
2022/04/15 11:02:20;;;;;;;26.50;10.47;;;22.60;56.10;;;;;;4911109;29;20236;-90
2022/04/15 11:04:49;;;;;;;17.73;10.47;;;22.70;56.60;;;;;;4912934;29;20201;-92
2022/04/15 11:07:25;;;;;;;19.93;11.83;;;22.80;56.30;;;;;;4912035;29;20613;-93
2022/04/15 11:09:53;;;;;;;16.93;10.57;;;22.90;55.40;;;;;;4910507;29;20239;-89
2022/04/15 11:12:43;;;;;;;49.37;12.00;;;23.00;55.60;;;;;;4914548;29;20734;-91
2022/04/15 11:15:12;;;;;;;15.47;9.73;;;23.10;54.90;;;;;;4903405;29;20202;-91
2022/04/15 11:17:45;;;;;;;14.07;9.10;;;23.10;55.20;;;;;;4912573;29;20223;-92
2022/04/15 11:20:13;;;;;;;13.50;9.33;;;23.20;55.20;;;;;;4912945;29;20299;-92
2022/04/15 11:22:41;;;;;;;18.67;11.53;;;23.30;55.60;;;;;;4911714;29;20646;-91
2022/04/15 11:25:10;;;;;;;14.07;9.57;;;23.40;54.90;;;;;;4911333;29;20304;-92
2022/04/15 11:27:41;;;;;;;16.57;12.23;;;23.50;54.10;;;;;;4912382;29;20716;-92
2022/04/15 11:30:35;;;;;;;23.10;16.10;;;23.50;54.50;;;;;;4912405;29;20228;-92
2022/04/15 11:33:05;;;;;;;30.87;21.33;;;23.60;54.10;;;;;;4900550;29;20386;-91
2022/04/15 11:35:34;;;;;;;30.53;21.00;;;23.70;55.10;;;;;;4910958;29;20211;-91
2022/04/15 11:38:04;;;;;;;27.33;20.63;;;23.70;55.70;;;;;;4907464;29;20205;-89
2022/04/15 11:40:34;;;;;;;24.13;18.03;;;23.80;55.90;;;;;;4913770;29;20565;-90
2022/04/15 11:43:06;;;;;;;25.77;17.37;;;23.80;55.20;;;;;;4913303;29;20207;-89
2022/04/15 11:45:35;;;;;;;26.10;17.97;;;23.70;54.10;;;;;;4910895;29;20327;-91
2022/04/15 11:48:22;;;;;;;28.67;21.17;;;23.70;54.50;;;;;;4912866;29;20219;-92
2022/04/15 11:50:54;;;;;;;26.57;19.97;;;23.70;53.90;;;;;;4912519;29;20288;-91
2022/04/15 11:53:23;;;;;;;24.10;18.93;;;23.80;54.80;;;;;;4911518;29;20209;-90
2022/04/15 11:55:52;;;;;;;27.13;20.07;;;23.80;54.90;;;;;;4911960;29;20215;-89
2022/04/15 11:58:23;;;;;;;23.30;17.50;;;23.70;55.00;;;;;;4912649;29;21080;-91
2022/04/15 12:00:54;;;;;;;27.33;19.13;;;23.70;54.50;;;;;;4912730;29;20289;-90
2022/04/15 12:03:26;;;;;;;22.43;17.67;;;23.80;54.30;;;;;;4911865;29;20264;-91
2022/04/15 12:05:55;;;;;;;30.60;21.23;;;23.80;55.50;;;;;;4910875;29;20215;-91
2022/04/15 12:08:22;;;;;;;23.27;17.03;;;23.80;54.50;;;;;;4913094;29;20256;-91
2022/04/15 12:11:05;;;;;;;22.97;17.33;;;23.80;54.80;;;;;;4912688;29;20247;-93
2022/04/15 12:13:35;;;;;;;26.17;19.63;;;23.90;54.00;;;;;;4906454;29;20212;-89
2022/04/15 12:16:02;;;;;;;31.03;20.37;;;23.90;54.60;;;;;;4911974;29;20677;-93
2022/04/15 12:18:32;;;;;;;24.67;16.50;;;24.00;54.20;;;;;;4912787;29;20216;-92
2022/04/15 12:21:00;;;;;;;26.70;18.40;;;24.00;54.10;;;;;;4912416;29;20268;-92
2022/04/15 12:23:28;;;;;;;22.00;16.93;;;24.00;53.80;;;;;;4904475;29;20304;-92
2022/04/15 12:26:09;;;;;;;19.17;14.70;;;24.10;53.70;;;;;;4908024;29;20208;-91
2022/04/15 12:31:31;;;;;;;18.40;12.43;;;24.10;53.20;;;;;;4911597;29;20312;-93
2022/04/15 12:33:58;;;;;;;21.97;12.90;;;24.20;53.00;;;;;;4913582;29;20205;-91
2022/04/15 12:36:38;;;;;;;17.63;11.60;;;24.20;53.20;;;;;;4911357;29;20216;-93
2022/04/15 12:39:07;;;;;;;13.43;10.30;;;24.20;52.30;;;;;;4916780;29;20761;-94
2022/04/15 12:44:29;;;;;;;13.53;8.43;;;24.30;51.70;;;;;;4923906;23;20339;-93
2022/04/15 12:47:00;;;;;;;14.87;10.30;;;24.30;51.60;;;;;;4936409;29;20256;-93
2022/04/15 12:49:30;;;;;;;18.03;10.43;;;24.30;51.20;;;;;;4940248;29;20283;-92
2022/04/15 12:52:14;;;;;;;12.47;8.43;;;24.30;51.90;;;;;;4925252;29;20205;-93
2022/04/15 12:55:02;;;;;;;15.07;8.57;;;24.30;51.50;;;;;;4923338;29;20294;-94
2022/04/15 12:57:36;;;;;;;12.33;7.53;;;24.40;51.80;;;;;;4925017;29;20622;-95
2022/04/15 13:00:10;;;;;;;11.10;8.13;;;24.40;51.30;;;;;;4919539;29;20304;-91
2022/04/15 13:02:54;;;;;;;10.63;7.93;;;24.40;51.20;;;;;;4931029;29;20208;-93